Time;durP1;ratioP1;P1;durP2;ratioP2;P2;SDS_P1;SDS_P2;PMS_P1;PMS_P2;Temp;Humidity;BMP_temperature;BMP_pressure;BME280_temperature;BME280_humidity;BME280_pressure;Samples;Min_cycle;Max_cycle;Signal;HPM_P1;HPM_P2
2021/08/06 00:00:07;;;;;;;34.35;8.90;;;;;;;19.82;100.00;100358.00;1664126;86;21894;-77
2021/08/06 00:02:35;;;;;;;24.10;9.65;;;;;;;19.84;100.00;100354.95;1664274;86;21098;-79
2021/08/06 00:05:03;;;;;;;26.33;9.40;;;;;;;19.83;100.00;100347.32;1664197;86;21113;-78
2021/08/06 00:07:29;;;;;;;22.90;9.58;;;;;;;19.81;100.00;100349.57;1628020;88;21065;-79
2021/08/06 00:09:55;;;;;;;25.48;9.28;;;;;;;19.81;100.00;100353.67;1628119;88;21047;-79
2021/08/06 00:12:21;;;;;;;21.07;8.73;;;;;;;19.81;100.00;100350.14;1627871;86;21105;-79
2021/08/06 00:14:47;;;;;;;26.68;9.83;;;;;;;19.81;100.00;100352.87;1627698;86;20977;-79
2021/08/06 00:17:13;;;;;;;25.25;9.08;;;;;;;19.82;100.00;100354.47;1627939;86;21100;-79
2021/08/06 00:19:39;;;;;;;30.48;11.78;;;;;;;19.79;100.00;100347.72;1627944;86;21624;-79
2021/08/06 00:24:35;;;;;;;24.75;10.00;;;;;;;19.76;100.00;100355.22;1574618;91;21080;-78
2021/08/06 00:27:01;;;;;;;28.62;11.08;;;;;;;19.75;100.00;100364.55;1574974;91;20904;-78
2021/08/06 00:29:27;;;;;;;30.50;10.93;;;;;;;19.76;100.00;100371.62;1574807;91;21225;-79
2021/08/06 00:31:53;;;;;;;29.07;10.15;;;;;;;19.76;100.00;100383.92;1554690;91;20980;-79
2021/08/06 00:34:19;;;;;;;24.55;9.90;;;;;;;19.75;100.00;100389.17;1574778;91;21001;-79
2021/08/06 00:36:44;;;;;;;25.50;9.40;;;;;;;19.72;100.00;100395.29;1576006;88;22195;-78
2021/08/06 00:39:10;;;;;;;21.82;9.48;;;;;;;19.68;100.00;100401.19;1604585;88;20990;-76
2021/08/06 00:41:37;;;;;;;28.25;10.05;;;;;;;19.65;100.00;100403.20;1616305;88;21085;-78
2021/08/06 00:44:04;;;;;;;20.43;9.65;;;;;;;19.62;100.00;100386.85;1616102;88;21116;-79
2021/08/06 00:46:31;;;;;;;25.32;9.88;;;;;;;19.61;100.00;100385.23;1616169;88;21085;-76
2021/08/06 00:48:57;;;;;;;23.05;9.63;;;;;;;19.59;100.00;100388.05;1616180;88;21286;-78
2021/08/06 00:51:23;;;;;;;27.75;10.32;;;;;;;19.51;100.00;100390.48;1612453;88;20963;-80
2021/08/06 00:53:49;;;;;;;23.75;9.63;;;;;;;19.45;100.00;100397.25;1611186;89;21114;-79
2021/08/06 00:56:16;;;;;;;28.12;10.82;;;;;;;19.43;100.00;100398.70;1611110;89;21090;-80
2021/08/06 00:58:42;;;;;;;20.90;10.18;;;;;;;19.42;100.00;100390.27;1611156;89;21096;-79
2021/08/06 01:01:08;;;;;;;26.40;10.80;;;;;;;19.42;100.00;100394.37;1611604;89;21116;-79
2021/08/06 01:06:32;;;;;;;22.45;11.05;;;;;;;19.45;100.00;100389.05;1684042;85;20999;-79
2021/08/06 01:09:18;;;;;;;28.25;10.18;;;;;;;19.40;100.00;100378.28;1688310;85;21035;-78
2021/08/06 01:11:48;;;;;;;24.32;11.03;;;;;;;19.39;100.00;100375.32;1695048;84;21042;-77
2021/08/06 01:14:18;;;;;;;36.80;11.57;;;;;;;19.37;100.00;100383.59;1697911;84;21158;-79
2021/08/06 01:16:47;;;;;;;26.70;10.65;;;;;;;19.34;100.00;100379.58;1697688;83;21096;-78
2021/08/06 01:19:43;;;;;;;27.35;11.03;;;;;;;19.34;100.00;100373.31;1697704;84;21042;-79
2021/08/06 01:22:29;;;;;;;22.20;9.95;;;;;;;19.31;100.00;100376.70;1665242;86;21098;-77
2021/08/06 01:25:12;;;;;;;23.65;10.88;;;;;;;19.27;100.00;100375.19;1634410;87;21091;-78
2021/08/06 01:27:39;;;;;;;19.87;10.20;;;;;;;19.21;100.00;100373.75;1576054;89;21103;-79
2021/08/06 01:30:09;;;;;;;21.87;10.00;;;;;;;19.12;100.00;100376.48;1554657;91;21192;-79
2021/08/06 01:32:36;;;;;;;25.82;11.00;;;;;;;19.08;100.00;100368.67;1566202;91;21602;-78
2021/08/06 01:35:07;;;;;;;32.42;12.20;;;;;;;19.06;100.00;100368.22;1575948;89;21102;-79
2021/08/06 01:37:33;;;;;;;24.40;10.85;;;;;;;19.10;100.00;100361.54;1556391;92;21122;-79
2021/08/06 01:40:03;;;;;;;23.38;10.78;;;;;;;19.06;100.00;100364.91;1556210;92;21105;-81
2021/08/06 01:42:47;;;;;;;23.18;10.38;;;;;;;19.00;100.00;100363.48;1553322;90;21141;-79
2021/08/06 01:45:18;;;;;;;25.02;9.93;;;;;;;18.95;100.00;100357.38;1554649;92;21026;-78
2021/08/06 01:47:51;;;;;;;25.37;11.08;;;;;;;18.92;100.00;100357.45;1556708;92;21141;-79
2021/08/06 01:50:27;;;;;;;27.27;11.03;;;;;;;18.91;100.00;100359.13;1559523;89;21310;-78
2021/08/06 01:53:03;;;;;;;25.72;11.22;;;;;;;18.87;100.00;100351.34;1541455;93;21609;-79
2021/08/06 01:55:56;;;;;;;20.55;10.85;;;;;;;18.86;100.00;100348.38;1542464;93;21321;-78
2021/08/06 01:58:24;;;;;;;26.48;11.78;;;;;;;18.86;100.00;100344.28;1510141;93;25887;-78
2021/08/06 02:00:51;;;;;;;22.45;11.03;;;;;;;18.85;100.00;100339.36;1531831;87;21153;-78
2021/08/06 02:03:18;;;;;;;31.85;11.10;;;;;;;18.84;100.00;100337.20;1597892;88;21160;-79
2021/08/06 02:05:47;;;;;;;24.75;10.80;;;;;;;18.83;100.00;100327.98;1584303;90;21357;-79
2021/08/06 02:08:13;;;;;;;20.55;11.18;;;;;;;18.76;100.00;100327.08;1581641;90;21545;-79
2021/08/06 02:10:39;;;;;;;26.50;10.98;;;;;;;18.71;100.00;100327.23;1584385;90;20957;-79
2021/08/06 02:13:05;;;;;;;26.62;11.10;;;;;;;18.66;100.00;100333.41;1584413;90;21101;-79
2021/08/06 02:15:34;;;;;;;30.60;12.18;;;;;;;18.59;100.00;100330.59;1583897;90;21032;-80
2021/08/06 02:18:01;;;;;;;30.85;12.15;;;;;;;18.58;100.00;100343.18;1584229;90;21100;-79
2021/08/06 02:20:27;;;;;;;26.07;11.28;;;;;;;18.57;100.00;100343.75;1584216;90;21587;-79
2021/08/06 02:22:57;;;;;;;25.20;11.05;;;;;;;18.57;100.00;100340.22;1564014;90;21037;-79
2021/08/06 02:25:25;;;;;;;26.15;11.50;;;;;;;18.54;100.00;100343.59;1584602;90;21157;-78
2021/08/06 02:27:53;;;;;;;32.73;11.88;;;;;;;18.54;100.00;100336.20;1584557;89;21084;-79
2021/08/06 02:30:21;;;;;;;29.25;11.73;;;;;;;18.53;100.00;100337.87;1584351;90;22300;-75
2021/08/06 02:32:48;;;;;;;24.35;12.35;;;;;;;18.54;100.00;100347.12;1584329;90;21552;-78
2021/08/06 02:35:14;;;;;;;26.60;11.80;;;;;;;18.58;100.00;100350.00;1683811;82;20984;-78
2021/08/06 02:37:44;;;;;;;29.20;12.45;;;;;;;18.59;100.00;100335.25;1747900;80;20968;-76
2021/08/06 02:40:09;;;;;;;27.90;11.85;;;;;;;18.58;100.00;100337.16;1755442;80;21164;-83
2021/08/06 02:42:35;;;;;;;30.68;12.88;;;;;;;18.61;100.00;100343.34;1756048;80;22060;-78
2021/08/06 02:45:03;;;;;;;30.92;12.70;;;;;;;18.64;100.00;100340.53;1745175;82;20963;-78
2021/08/06 02:47:29;;;;;;;25.57;11.63;;;;;;;18.66;100.00;100336.93;1745291;82;21035;-79
2021/08/06 02:49:55;;;;;;;33.18;13.08;;;;;;;18.71;100.00;100334.05;1745111;82;21055;-78
2021/08/06 02:52:21;;;;;;;27.60;11.95;;;;;;;18.77;100.00;100345.65;1747529;82;21012;-79
2021/08/06 02:54:47;;;;;;;26.65;12.63;;;;;;;18.77;100.00;100336.89;1722337;82;21917;-78
2021/08/06 02:57:13;;;;;;;39.67;12.60;;;;;;;18.82;100.00;100350.92;1747817;82;20896;-77
2021/08/06 02:59:39;;;;;;;35.25;12.13;;;;;;;18.86;100.00;100345.08;1747922;82;21070;-77
2021/08/06 03:02:05;;;;;;;35.13;13.88;;;;;;;18.93;100.00;100337.77;1748157;82;20971;-78
2021/08/06 03:04:33;;;;;;;31.77;12.82;;;;;;;19.01;100.00;100345.16;1747979;82;20991;-78
2021/08/06 03:07:01;;;;;;;31.93;14.95;;;;;;;19.06;100.00;100340.34;1673757;84;21107;-78
2021/08/06 03:09:27;;;;;;;34.20;13.38;;;;;;;19.15;100.00;100335.40;1673885;85;21649;-78
2021/08/06 03:11:53;;;;;;;30.60;13.20;;;;;;;19.18;100.00;100317.02;1682410;83;20934;-79
2021/08/06 03:14:19;;;;;;;30.20;13.93;;;;;;;19.28;100.00;100316.66;1708309;83;21129;-77
2021/08/06 03:16:45;;;;;;;27.30;14.25;;;;;;;19.39;100.00;100323.97;1704274;83;21051;-78
2021/08/06 03:19:11;;;;;;;31.93;14.18;;;;;;;19.47;100.00;100323.11;1678463;84;21915;-79
2021/08/06 03:21:37;;;;;;;33.85;13.75;;;;;;;19.58;100.00;100317.53;1702062;84;21643;-78
2021/08/06 03:24:05;;;;;;;39.45;14.58;;;;;;;19.69;100.00;100302.98;1702217;84;20930;-78
2021/08/06 03:26:31;;;;;;;32.42;15.10;;;;;;;19.85;100.00;100299.12;1673609;85;21097;-78
2021/08/06 03:28:57;;;;;;;30.50;13.95;;;;;;;19.98;100.00;100302.77;1673825;85;20919;-77
2021/08/06 03:31:25;;;;;;;30.82;13.93;;;;;;;20.09;100.00;100306.17;1673753;85;21144;-75
2021/08/06 03:33:51;;;;;;;30.62;13.62;;;;;;;20.20;100.00;100298.36;1673707;85;21207;-76
2021/08/06 03:36:17;;;;;;;28.73;14.53;;;;;;;20.31;100.00;100307.78;1673956;85;21596;-77
2021/08/06 03:38:43;;;;;;;40.05;14.95;;;;;;;20.36;100.00;100306.23;1673783;85;20915;-79
2021/08/06 03:41:09;;;;;;;34.05;13.95;;;;;;;20.52;100.00;100304.27;1673414;85;21104;-78
2021/08/06 03:43:35;;;;;;;32.60;13.10;;;;;;;20.89;100.00;100309.96;1673817;85;21102;-78
2021/08/06 03:46:01;;;;;;;36.10;13.65;;;;;;;21.28;100.00;100308.02;1673645;85;20919;-78
2021/08/06 03:48:28;;;;;;;31.52;12.95;;;;;;;21.76;100.00;100297.48;1673588;85;21588;-78
2021/08/06 03:50:54;;;;;;;30.02;13.22;;;;;;;22.40;100.00;100298.72;1671694;84;21077;-78
2021/08/06 03:53:20;;;;;;;33.98;12.78;;;;;;;23.02;100.00;100302.88;1715219;83;21047;-75
2021/08/06 03:55:46;;;;;;;23.95;12.13;;;;;;;23.57;100.00;100311.38;1714613;83;21599;-78
2021/08/06 03:58:12;;;;;;;25.72;12.20;;;;;;;24.18;100.00;100299.11;1715318;83;20899;-78
2021/08/06 04:00:39;;;;;;;31.90;12.30;;;;;;;24.99;100.00;100303.95;1715264;83;21160;-79
2021/08/06 04:03:07;;;;;;;26.35;11.45;;;;;;;25.50;100.00;100299.57;1713249;82;21128;-79
2021/08/06 04:05:34;;;;;;;29.50;12.47;;;;;;;25.92;100.00;100289.85;1774685;79;20996;-78
2021/08/06 04:08:08;;;;;;;35.80;12.13;;;;;;;26.49;100.00;100292.05;1773192;79;21420;-76
2021/08/06 04:10:34;;;;;;;28.87;11.53;;;;;;;26.30;100.00;100286.64;1766914;81;21008;-78
2021/08/06 04:13:00;;;;;;;33.08;12.07;;;;;;;26.72;100.00;100290.55;1769502;81;21068;-80
2021/08/06 04:15:26;;;;;;;26.10;12.25;;;;;;;27.38;100.00;100290.89;1769514;81;21070;-78
2021/08/06 04:17:52;;;;;;;25.82;12.53;;;;;;;27.50;100.00;100295.91;1773255;79;20988;-79
2021/08/06 04:20:18;;;;;;;36.15;12.58;;;;;;;27.34;100.00;100298.94;1795030;79;21217;-79
2021/08/06 04:22:47;;;;;;;38.88;13.05;;;;;;;27.50;100.00;100289.81;1804520;78;20961;-80
2021/08/06 04:25:13;;;;;;;35.65;13.53;;;;;;;28.10;100.00;100275.42;1793367;79;21530;-79
2021/08/06 04:27:40;;;;;;;36.20;14.07;;;;;;;28.80;100.00;100278.34;1808203;78;21023;-79
2021/08/06 04:30:08;;;;;;;29.70;13.18;;;;;;;28.90;100.00;100287.87;1809003;78;21019;-80
2021/08/06 04:32:35;;;;;;;38.48;13.58;;;;;;;29.44;100.00;100288.77;1793615;80;21066;-78
2021/08/06 04:35:01;;;;;;;41.30;13.68;;;;;;;30.08;95.51;100290.12;1818798;78;20913;-81
2021/08/06 04:37:27;;;;;;;34.00;14.00;;;;;;;30.18;92.39;100292.70;1803130;78;21031;-79
2021/08/06 04:39:53;;;;;;;42.62;15.38;;;;;;;30.72;94.22;100280.80;1793619;79;20892;-80
2021/08/06 04:42:19;;;;;;;40.58;14.85;;;;;;;31.01;81.24;100284.84;1793618;80;21050;-80
2021/08/06 04:44:45;;;;;;;44.98;15.68;;;;;;;30.69;79.07;100286.38;1826573;78;21633;-79
2021/08/06 04:47:11;;;;;;;34.48;15.13;;;;;;;30.50;78.43;100283.47;1826704;78;20860;-78
2021/08/06 04:49:37;;;;;;;31.90;14.00;;;;;;;30.62;79.14;100280.84;1828949;77;20968;-79
2021/08/06 04:52:04;;;;;;;33.15;13.65;;;;;;;30.92;79.43;100280.34;1814428;77;21444;-80
2021/08/06 04:54:30;;;;;;;33.23;14.90;;;;;;;31.36;79.53;100261.56;1834496;77;21022;-78
2021/08/06 04:56:58;;;;;;;70.83;16.30;;;;;;;32.22;71.06;100278.86;1834947;77;21906;-79
2021/08/06 04:59:24;;;;;;;28.62;13.68;;;;;;;32.38;67.13;100289.42;1819411;77;21155;-80
2021/08/06 05:01:50;;;;;;;25.02;12.47;;;;;;;33.34;64.04;100281.77;1808785;78;20950;-77
2021/08/06 05:04:15;;;;;;;27.90;12.70;;;;;;;33.34;64.04;100281.77;1831160;78;20852;-79
2021/08/06 05:06:41;;;;;;;29.10;12.13;;;;;;;33.78;56.76;100281.26;1835012;77;20856;-79
2021/08/06 05:09:07;;;;;;;28.30;12.63;;;;;;;33.28;55.29;100289.67;1821800;77;21126;-78
2021/08/06 05:11:35;;;;;;;29.37;12.73;;;;;;;33.20;53.08;100290.38;1747619;81;21514;-78
2021/08/06 05:14:01;;;;;;;31.50;12.75;;;;;;;32.78;53.65;100296.12;1734717;81;21068;-79
2021/08/06 05:16:27;;;;;;;27.27;14.55;;;;;;;33.10;53.02;100304.69;1760194;80;20978;-78
2021/08/06 05:18:53;;;;;;;35.28;13.50;;;;;;;33.27;51.82;100297.84;1763258;81;21067;-77
2021/08/06 05:21:19;;;;;;;28.85;13.80;;;;;;;33.65;50.05;100293.67;1763432;81;20969;-78
2021/08/06 05:23:45;;;;;;;33.30;14.83;;;;;;;34.24;49.59;100290.82;1763643;81;20970;-78
2021/08/06 05:26:11;;;;;;;32.83;13.60;;;;;;;34.53;46.99;100288.23;1763179;81;21442;-79
2021/08/06 05:28:40;;;;;;;35.28;14.95;;;;;;;34.64;47.12;100283.81;1759490;79;21656;-79
2021/08/06 05:31:05;;;;;;;30.40;14.87;;;;;;;34.68;46.17;100290.14;1763426;81;21110;-78
2021/08/06 05:33:31;;;;;;;40.75;15.43;;;;;;;35.02;44.53;100281.97;1763208;81;21840;-79
2021/08/06 05:35:57;;;;;;;40.40;15.70;;;;;;;34.84;44.00;100279.58;1759090;81;20875;-79
2021/08/06 05:38:23;;;;;;;37.03;15.08;;;;;;;34.69;44.05;100269.92;1763344;81;21469;-79
2021/08/06 05:40:49;;;;;;;42.03;16.60;;;;;;;34.79;42.70;100263.29;1763370;81;20914;-78
2021/08/06 05:43:15;;;;;;;49.83;17.60;;;;;;;35.05;43.02;100262.92;1816991;78;20924;-78
2021/08/06 05:45:42;;;;;;;46.80;17.17;;;;;;;35.49;43.43;100252.23;1835279;77;21569;-78
2021/08/06 05:48:09;;;;;;;39.92;16.23;;;;;;;35.68;41.96;100244.36;1834364;77;20975;-80
2021/08/06 05:50:41;;;;;;;41.25;15.10;;;;;;;35.78;42.07;100251.52;1834697;77;21518;-79
2021/08/06 05:53:07;;;;;;;32.17;14.90;;;;;;;36.01;40.93;100239.27;1811262;78;20951;-79
2021/08/06 05:55:33;;;;;;;32.98;14.10;;;;;;;36.08;40.70;100235.66;1829131;78;21043;-80
2021/08/06 05:57:59;;;;;;;27.05;13.78;;;;;;;36.33;40.81;100207.51;1829080;78;21070;-79
2021/08/06 06:00:25;;;;;;;28.80;13.83;;;;;;;36.92;39.38;100241.20;1828959;77;21688;-80
2021/08/06 06:02:51;;;;;;;27.48;13.98;;;;;;;37.02;38.94;100230.87;1829209;78;21369;-80
2021/08/06 06:05:17;;;;;;;24.00;14.40;;;;;;;36.97;39.28;100237.80;1821902;78;20828;-79
2021/08/06 06:07:48;;;;;;;25.45;14.50;;;;;;;37.24;39.18;100240.77;1825594;77;20992;-79
2021/08/06 06:10:21;;;;;;;24.65;14.13;;;;;;;37.33;39.09;100240.89;1738830;82;21847;-80
2021/08/06 06:12:48;;;;;;;30.60;14.40;;;;;;;37.40;38.77;100238.45;1709068;84;21053;-79
2021/08/06 06:15:17;;;;;;;24.82;13.95;;;;;;;37.47;38.82;100230.57;1709287;83;21025;-78
2021/08/06 06:17:44;;;;;;;26.45;13.88;;;;;;;37.54;38.98;100221.75;1708789;83;21116;-80
2021/08/06 06:20:11;;;;;;;28.35;13.78;;;;;;;37.55;39.80;100207.22;1709247;83;21131;-80
2021/08/06 06:22:38;;;;;;;22.67;13.40;;;;;;;38.06;40.10;100202.77;1709213;83;21278;-81
2021/08/06 06:25:08;;;;;;;25.60;13.43;;;;;;;38.44;38.76;100213.66;1709203;83;21086;-81
2021/08/06 06:27:47;;;;;;;23.83;11.90;;;;;;;38.48;38.38;100211.50;1709308;83;21037;-80
2021/08/06 06:30:13;;;;;;;25.60;11.55;;;;;;;38.75;39.11;100211.61;1624959;87;21144;-81
2021/08/06 06:32:39;;;;;;;20.85;10.88;;;;;;;39.37;37.86;100207.89;1629723;87;21067;-82
2021/08/06 06:35:06;;;;;;;26.85;11.40;;;;;;;39.68;37.08;100204.92;1599345;88;21148;-82
2021/08/06 06:37:31;;;;;;;19.50;11.08;;;;;;;39.57;37.07;100196.14;1627502;87;21137;-80
2021/08/06 06:39:59;;;;;;;23.77;12.20;;;;;;;40.06;36.38;100195.79;1636765;87;21065;-81
2021/08/06 06:42:31;;;;;;;25.10;11.73;;;;;;;40.00;36.20;100190.63;1591963;89;21166;-82
2021/08/06 06:44:59;;;;;;;23.35;10.95;;;;;;;40.30;36.23;100192.47;1591570;89;21139;-79
2021/08/06 06:47:24;;;;;;;18.80;10.58;;;;;;;40.83;33.62;100198.23;1591677;89;21572;-81
2021/08/06 06:49:50;;;;;;;23.38;10.35;;;;;;;40.93;33.11;100192.67;1591901;88;20950;-79
2021/08/06 06:52:16;;;;;;;18.57;10.00;;;;;;;41.32;33.39;100192.74;1563722;90;21792;-81
2021/08/06 06:54:42;;;;;;;20.50;10.15;;;;;;;41.77;32.17;100195.08;1568094;90;20904;-82
2021/08/06 06:57:08;;;;;;;18.35;10.40;;;;;;;41.39;32.01;100197.24;1542053;92;21096;-81
2021/08/06 06:59:36;;;;;;;14.75;9.50;;;;;;;40.97;32.61;100199.55;1559853;92;21918;-82
2021/08/06 07:02:02;;;;;;;14.90;9.58;;;;;;;40.71;32.66;100197.81;1560880;90;21129;-83
2021/08/06 07:04:28;;;;;;;15.20;9.93;;;;;;;40.53;32.83;100205.71;1560817;90;21086;-83
2021/08/06 07:06:55;;;;;;;19.48;9.88;;;;;;;41.00;32.19;100204.25;1564329;89;21108;-83
2021/08/06 07:09:20;;;;;;;15.48;9.38;;;;;;;40.90;32.59;100199.92;1612039;89;21203;-80
2021/08/06 07:11:46;;;;;;;14.60;9.90;;;;;;;41.08;32.77;100204.85;1635152;87;21113;-81
2021/08/06 07:14:12;;;;;;;17.57;9.25;;;;;;;41.09;32.63;100199.97;1619419;88;21678;-80
2021/08/06 07:16:38;;;;;;;21.02;9.23;;;;;;;40.97;33.12;100197.50;1619140;88;20957;-82
2021/08/06 07:19:04;;;;;;;18.42;9.98;;;;;;;41.28;32.84;100183.67;1619358;88;20917;-83
2021/08/06 07:21:34;;;;;;;21.07;11.08;;;;;;;41.28;33.28;100190.11;1619302;88;21024;-81
2021/08/06 07:24:00;;;;;;;17.92;10.13;;;;;;;41.61;33.48;100192.06;1575884;91;21108;-82
2021/08/06 07:26:28;;;;;;;17.50;10.20;;;;;;;42.02;32.93;100190.91;1593343;89;20975;-82
2021/08/06 07:28:54;;;;;;;21.27;10.88;;;;;;;41.61;32.24;100193.48;1629360;88;21181;-82
2021/08/06 07:31:20;;;;;;;16.60;10.03;;;;;;;41.23;33.42;100192.81;1629281;88;21192;-83
2021/08/06 07:33:46;;;;;;;22.80;11.08;;;;;;;41.16;33.42;100196.02;1629281;88;21490;-82
2021/08/06 07:36:12;;;;;;;24.07;10.15;;;;;;;41.01;33.35;100191.69;1629272;88;21170;-81
2021/08/06 07:38:38;;;;;;;18.85;9.98;;;;;;;40.54;33.73;100190.34;1644744;83;20975;-81
2021/08/06 07:41:03;;;;;;;15.20;9.73;;;;;;;40.07;33.98;100184.67;1657874;84;20998;-80
2021/08/06 07:43:32;;;;;;;15.93;9.50;;;;;;;39.77;34.45;100183.61;1704725;82;20970;-84
2021/08/06 07:45:58;;;;;;;13.83;9.05;;;;;;;39.58;35.36;100191.28;1704295;82;21062;-79
2021/08/06 07:48:27;;;;;;;17.40;9.43;;;;;;;39.82;34.88;100197.87;1724788;81;21144;-80
2021/08/06 07:50:56;;;;;;;15.85;9.25;;;;;;;39.99;34.78;100209.61;1712333;82;21014;-78
2021/08/06 07:53:22;;;;;;;16.65;9.88;;;;;;;39.84;34.47;100202.42;1736573;81;21538;-79
2021/08/06 07:55:48;;;;;;;15.65;8.85;;;;;;;40.14;34.03;100204.87;1712320;83;21059;-80
2021/08/06 07:58:14;;;;;;;16.15;8.95;;;;;;;40.42;34.07;100210.48;1708493;83;21015;-80
2021/08/06 08:00:41;;;;;;;14.45;9.95;;;;;;;40.49;33.23;100219.23;1713919;81;21283;-80
2021/08/06 08:03:09;;;;;;;19.25;9.15;;;;;;;40.56;33.42;100209.77;1741889;82;21004;-79
2021/08/06 08:05:36;;;;;;;16.97;9.88;;;;;;;41.23;33.77;100209.15;1737594;81;20996;-82
2021/08/06 08:08:04;;;;;;;13.68;8.93;;;;;;;42.33;32.12;100198.94;1691540;84;21094;-79
2021/08/06 08:10:35;;;;;;;15.68;9.33;;;;;;;42.03;30.71;100203.02;1691621;84;21054;-79
2021/08/06 08:13:01;;;;;;;;;;;;;;;41.65;31.07;100202.58;1694214;84;21110;-79
2021/08/06 08:15:28;;;;;;;14.28;8.90;;;;;;;41.36;31.41;100203.87;1691628;84;20150;-78
2021/08/06 08:17:54;;;;;;;19.80;9.83;;;;;;;41.20;31.60;100203.05;1691396;84;21039;-79
2021/08/06 08:20:21;;;;;;;16.30;8.23;;;;;;;41.13;31.55;100206.88;1692777;84;21108;-79
2021/08/06 08:22:47;;;;;;;15.90;8.73;;;;;;;41.04;31.67;100201.43;1750503;80;21039;-80
2021/08/06 08:25:14;;;;;;;17.05;8.88;;;;;;;41.34;31.33;100207.83;1735875;82;21109;-79
2021/08/06 08:27:40;;;;;;;19.52;9.68;;;;;;;41.31;31.68;100208.16;1751740;81;21589;-84
2021/08/06 08:30:08;;;;;;;17.25;8.30;;;;;;;41.34;31.80;100215.68;1740161;82;21416;-79
2021/08/06 08:32:37;;;;;;;19.70;8.98;;;;;;;41.31;30.72;100207.52;1758999;81;20994;-84
2021/08/06 08:35:06;;;;;;;16.37;8.13;;;;;;;41.12;31.66;100206.71;1740256;82;21019;-80
2021/08/06 08:37:32;;;;;;;19.52;8.30;;;;;;;40.94;31.94;100204.13;1758887;81;21387;-80
2021/08/06 08:39:58;;;;;;;23.40;8.63;;;;;;;41.62;30.76;100207.77;1739996;82;21480;-79
2021/08/06 08:42:25;;;;;;;14.00;8.23;;;;;;;42.26;30.42;100202.13;1759179;81;21479;-78
2021/08/06 08:44:51;;;;;;;11.50;8.03;;;;;;;42.40;29.77;100194.91;1744445;81;21036;-80
2021/08/06 08:47:22;;;;;;;17.40;8.10;;;;;;;43.15;30.07;100191.25;1774877;80;20975;-79
2021/08/06 08:49:49;;;;;;;15.60;8.23;;;;;;;43.91;29.27;100193.92;1776902;80;21488;-80
2021/08/06 08:52:16;;;;;;;18.20;7.80;;;;;;;44.36;28.52;100192.31;1751549;80;21416;-79
2021/08/06 08:54:42;;;;;;;22.82;8.53;;;;;;;44.83;27.59;100192.09;1753173;81;21499;-80
2021/08/06 08:57:08;;;;;;;19.40;9.53;;;;;;;45.09;27.09;100189.13;1777918;80;21590;-84
2021/08/06 08:59:34;;;;;;;18.87;8.20;;;;;;;45.50;26.79;100181.66;1783942;79;21003;-79
2021/08/06 09:02:01;;;;;;;16.48;8.98;;;;;;;45.64;26.28;100183.53;1767940;80;21093;-80
2021/08/06 09:04:29;;;;;;;17.77;8.48;;;;;;;45.54;25.93;100185.86;1759550;79;20980;-81
2021/08/06 09:06:57;;;;;;;15.72;9.00;;;;;;;45.31;26.01;100189.90;1781070;80;21000;-81
2021/08/06 09:09:27;;;;;;;17.27;9.68;;;;;;;44.57;25.73;100192.97;1783747;79;21018;-80
2021/08/06 09:12:08;;;;;;;16.15;9.95;;;;;;;44.14;26.27;100185.77;1780175;80;21083;-81
2021/08/06 09:14:36;;;;;;;22.87;12.03;;;;;;;43.85;26.69;100182.51;1648738;85;21290;-80
2021/08/06 09:17:09;;;;;;;27.17;12.93;;;;;;;43.62;27.09;100181.50;1648814;86;21141;-80
2021/08/06 09:19:43;;;;;;;27.60;15.30;;;;;;;43.24;27.23;100181.17;1634455;86;21644;-80
2021/08/06 09:22:29;;;;;;;29.57;16.37;;;;;;;43.26;27.33;100177.98;1524508;94;21144;-81
2021/08/06 09:25:13;;;;;;;26.10;13.38;;;;;;;43.88;27.43;100170.79;1506266;94;21318;-80
2021/08/06 09:27:47;;;;;;;22.98;12.25;;;;;;;43.74;27.32;100166.78;1478590;97;21201;-80
2021/08/06 09:30:37;;;;;;;24.20;9.15;;;;;;;42.79;27.21;100165.75;1482650;95;21142;-80
2021/08/06 09:33:08;;;;;;;19.37;9.88;;;;;;;42.39;28.06;100166.45;1478857;95;21102;-81
2021/08/06 09:35:38;;;;;;;17.10;9.63;;;;;;;42.32;28.47;100164.00;1488609;96;21115;-81
2021/08/06 09:38:09;;;;;;;22.90;9.50;;;;;;;42.11;29.08;100166.73;1488586;96;21304;-80
2021/08/06 09:40:40;;;;;;;18.15;8.90;;;;;;;42.32;28.45;100153.45;1460215;97;21319;-81
2021/08/06 09:43:17;;;;;;;13.88;7.85;;;;;;;42.39;28.72;100141.72;1478355;95;21591;-80
2021/08/06 09:45:44;;;;;;;12.80;7.70;;;;;;;42.39;28.37;100145.20;1475926;97;21143;-80
2021/08/06 09:48:12;;;;;;;15.83;8.33;;;;;;;42.36;28.58;100137.04;1478088;95;21255;-80
2021/08/06 09:50:43;;;;;;;16.57;8.45;;;;;;;42.46;29.04;100134.08;1484094;96;21171;-80
2021/08/06 09:53:10;;;;;;;;;;;;;;;42.16;28.47;100128.45;1481881;94;21125;-80
2021/08/06 09:55:48;;;;;;;12.75;7.80;;;;;;;41.75;29.21;100128.26;1513734;94;20178;-79
2021/08/06 09:58:25;;;;;;;18.73;8.08;;;;;;;41.50;29.20;100119.69;1480843;96;21320;-89
2021/08/06 10:00:55;;;;;;;18.73;7.80;;;;;;;41.25;29.93;100113.93;1516214;94;21111;-78
2021/08/06 10:03:33;;;;;;;16.95;8.43;;;;;;;41.22;29.49;100111.44;1474022;96;21105;-79
2021/08/06 10:06:19;;;;;;;22.32;8.55;;;;;;;41.15;30.01;100115.26;1495421;95;21266;-79
2021/08/06 10:08:46;;;;;;;18.85;8.18;;;;;;;40.63;30.83;100099.27;1479907;96;21158;-80
2021/08/06 10:11:14;;;;;;;17.52;8.55;;;;;;;39.81;31.67;100096.12;1531765;91;21060;-80
2021/08/06 10:13:43;;;;;;;18.77;8.90;;;;;;;39.30;32.78;100092.59;1555749;90;21653;-77
2021/08/06 10:16:12;;;;;;;21.48;9.13;;;;;;;38.83;33.69;100091.73;1581653;90;21193;-80
2021/08/06 10:18:41;;;;;;;19.57;8.60;;;;;;;38.47;33.54;100094.45;1587276;88;21364;-80
2021/08/06 10:21:12;;;;;;;16.60;9.25;;;;;;;38.30;35.04;100094.70;1579950;90;21803;-80
2021/08/06 10:23:38;;;;;;;18.65;8.70;;;;;;;38.66;34.39;100084.81;1577057;86;21115;-79
2021/08/06 10:26:08;;;;;;;15.90;8.38;;;;;;;38.75;33.80;100083.41;1637023;87;21129;-80
2021/08/06 10:28:37;;;;;;;18.15;8.33;;;;;;;38.59;33.78;100078.05;1621444;88;21200;-79
2021/08/06 10:31:27;;;;;;;17.27;8.55;;;;;;;38.13;33.80;100076.48;1594170;89;21041;-79
2021/08/06 10:34:11;;;;;;;20.48;8.98;;;;;;;37.86;34.61;100075.72;1621265;87;21559;-80
2021/08/06 10:36:49;;;;;;;18.35;8.10;;;;;;;37.71;35.61;100069.82;1621585;88;21129;-79
2021/08/06 10:39:35;;;;;;;14.45;8.65;;;;;;;37.42;36.15;100063.86;1594296;89;21038;-80
2021/08/06 10:42:03;;;;;;;14.35;8.20;;;;;;;37.32;36.45;100062.20;1594448;89;21143;-80
2021/08/06 10:44:57;;;;;;;19.27;8.03;;;;;;;37.54;36.24;100058.66;1594451;89;21950;-80
2021/08/06 10:50:22;;;;;;;20.27;8.20;;;;;;;37.36;36.89;100053.04;1520685;94;21863;-82
2021/08/06 10:53:19;;;;;;;17.00;8.35;;;;;;;37.63;36.86;100039.80;1517989;92;21157;-81
2021/08/06 10:55:45;;;;;;;15.43;8.30;;;;;;;37.93;37.17;100035.44;1461595;98;21109;-80
2021/08/06 10:58:52;;;;;;;22.17;8.65;;;;;;;38.04;37.95;100038.47;1441281;98;21893;-79
2021/08/06 11:01:41;;;;;;;23.62;8.05;;;;;;;38.18;37.24;100028.02;1467655;96;21166;-82
2021/08/06 11:04:19;;;;;;;14.18;7.60;;;;;;;37.93;36.61;100026.19;1468223;96;21143;-80
2021/08/06 11:06:55;;;;;;;17.95;7.40;;;;;;;38.19;36.55;100015.52;1468191;96;21113;-81
2021/08/06 11:09:35;;;;;;;17.40;6.95;;;;;;;38.25;36.42;100008.66;1468488;96;21145;-80
2021/08/06 11:12:12;;;;;;;16.27;7.17;;;;;;;38.39;36.28;100002.44;1468561;96;21236;-77
2021/08/06 11:14:48;;;;;;;14.95;6.28;;;;;;;38.28;36.01;100004.28;1468297;96;21176;-80
2021/08/06 11:17:35;;;;;;;14.65;7.03;;;;;;;38.00;35.40;100002.63;1468124;96;21183;-81
2021/08/06 11:20:15;;;;;;;16.32;7.15;;;;;;;37.47;36.20;99995.02;1466758;96;21622;-81
2021/08/06 11:22:51;;;;;;;12.70;6.85;;;;;;;37.54;36.14;99990.53;1521365;94;21080;-80
2021/08/06 11:25:24;;;;;;;11.22;5.78;;;;;;;37.90;35.87;99989.91;1554508;91;21167;-81